Time;durP1;ratioP1;P1;durP2;ratioP2;P2;SDS_P1;SDS_P2;PMS_P1;PMS_P2;Temp;Humidity;BMP_temperature;BMP_pressure;BME280_temperature;BME280_humidity;BME280_pressure;Samples;Min_cycle;Max_cycle;Signal;HPM_P1;HPM_P2
2023/02/19 00:00:13;;;;;;;1.63;1.40;;;20.80;62.10;;;;;;4977595;28;20487;-91
2023/02/19 00:02:41;;;;;;;1.63;1.53;;;20.60;61.90;;;;;;4978011;28;20472;-89
2023/02/19 00:05:08;;;;;;;1.40;1.30;;;20.70;62.30;;;;;;4977885;28;20450;-89
2023/02/19 00:07:35;;;;;;;1.30;1.20;;;20.60;61.90;;;;;;4977729;28;20445;-89
2023/02/19 00:10:02;;;;;;;1.73;1.60;;;20.50;61.70;;;;;;4977757;28;20453;-89
2023/02/19 00:12:28;;;;;;;1.50;1.30;;;20.60;61.90;;;;;;4977642;28;20548;-89
2023/02/19 00:14:57;;;;;;;1.30;1.20;;;20.50;61.70;;;;;;4977792;28;20455;-89
2023/02/19 00:17:24;;;;;;;1.30;1.20;;;20.50;61.70;;;;;;4977674;28;20438;-91
2023/02/19 00:19:50;;;;;;;1.50;1.40;;;20.50;61.80;;;;;;4977638;28;20467;-89
2023/02/19 00:22:17;;;;;;;2.07;1.50;;;20.50;61.70;;;;;;4977544;28;20447;-89
2023/02/19 00:24:44;;;;;;;1.30;1.20;;;20.50;61.70;;;;;;4977413;28;20484;-91
2023/02/19 00:27:11;;;;;;;1.47;1.37;;;20.50;61.60;;;;;;4977513;28;20442;-89
2023/02/19 00:29:38;;;;;;;1.40;1.30;;;20.50;61.60;;;;;;4976247;28;20809;-88
2023/02/19 00:32:06;;;;;;;1.50;1.30;;;20.50;61.60;;;;;;4977290;28;20441;-88
2023/02/19 00:34:33;;;;;;;1.30;1.20;;;20.50;61.70;;;;;;4977266;28;20455;-88
2023/02/19 00:36:59;;;;;;;1.40;1.30;;;20.50;61.60;;;;;;4977385;28;20444;-88
2023/02/19 00:39:26;;;;;;;1.20;1.10;;;20.50;61.60;;;;;;4977115;28;20535;-89
2023/02/19 00:41:53;;;;;;;1.30;1.20;;;20.60;61.80;;;;;;4977223;28;20443;-89
2023/02/19 00:44:20;;;;;;;1.53;1.23;;;20.50;61.50;;;;;;4976941;28;20583;-89
2023/02/19 00:46:47;;;;;;;1.30;1.10;;;20.50;61.60;;;;;;4977185;28;20476;-91
2023/02/19 00:49:19;;;;;;;1.23;1.13;;;20.50;61.70;;;;;;4977054;28;20452;-89
2023/02/19 00:51:45;;;;;;;1.40;1.30;;;20.40;61.50;;;;;;4976685;28;20449;-90
2023/02/19 00:54:12;;;;;;;1.40;1.30;;;20.40;61.50;;;;;;4976966;28;20445;-88
2023/02/19 00:56:39;;;;;;;1.40;1.30;;;20.40;61.40;;;;;;4977504;28;20805;-90
2023/02/19 00:59:06;;;;;;;1.30;1.20;;;20.40;61.40;;;;;;4976659;28;20467;-88
2023/02/19 01:01:33;;;;;;;1.47;1.37;;;20.40;61.50;;;;;;4976961;28;20456;-91
2023/02/19 01:04:00;;;;;;;1.00;0.90;;;20.50;61.70;;;;;;4976913;28;20848;-90
2023/02/19 01:06:31;;;;;;;1.43;1.20;;;20.40;61.50;;;;;;4976836;28;20452;-88
2023/02/19 01:08:58;;;;;;;1.20;1.10;;;20.40;61.40;;;;;;4976877;28;20524;-88
2023/02/19 01:11:26;;;;;;;1.50;1.40;;;20.40;61.50;;;;;;4976602;28;20970;-90
2023/02/19 01:13:52;;;;;;;4.50;1.40;;;20.40;61.30;;;;;;4976905;28;20445;-88
2023/02/19 01:16:22;;;;;;;1.50;1.30;;;20.60;61.70;;;;;;4976368;28;20449;-91
2023/02/19 01:18:49;;;;;;;2.43;1.20;;;20.40;61.40;;;;;;4976977;28;20492;-88
2023/02/19 01:21:18;;;;;;;1.40;1.30;;;20.40;61.40;;;;;;4976639;28;20456;-91
2023/02/19 01:23:46;;;;;;;2.53;1.13;;;20.40;61.40;;;;;;4976260;28;20995;-88
2023/02/19 01:26:15;;;;;;;1.50;1.40;;;20.40;61.30;;;;;;4976455;28;20544;-88
2023/02/19 01:28:42;;;;;;;1.10;1.00;;;20.40;61.40;;;;;;4975980;28;20479;-89
2023/02/19 01:31:13;;;;;;;1.53;1.37;;;20.50;61.50;;;;;;4976205;28;20450;-89
2023/02/19 01:33:40;;;;;;;1.20;1.10;;;20.40;61.40;;;;;;4976135;28;20827;-89
2023/02/19 01:36:08;;;;;;;1.30;1.20;;;20.60;61.60;;;;;;4976218;28;20448;-91
2023/02/19 01:38:34;;;;;;;1.53;1.10;;;20.40;61.40;;;;;;4976106;28;20453;-89
2023/02/19 01:41:05;;;;;;;1.30;1.20;;;20.40;61.40;;;;;;4975800;28;20448;-89
2023/02/19 01:43:33;;;;;;;1.37;1.00;;;20.40;61.30;;;;;;4976136;28;20480;-90
2023/02/19 01:46:00;;;;;;;1.50;1.40;;;20.40;61.30;;;;;;4975905;28;20445;-88
2023/02/19 01:48:31;;;;;;;1.20;1.10;;;20.40;61.20;;;;;;4976074;28;20449;-92
2023/02/19 01:51:03;;;;;;;1.47;1.37;;;20.40;61.30;;;;;;4975766;28;20457;-89
2023/02/19 01:53:33;;;;;;;1.20;1.10;;;20.40;61.40;;;;;;4975684;28;20449;-90
2023/02/19 01:56:03;;;;;;;2.23;1.57;;;20.40;61.20;;;;;;4964886;28;20795;-90
2023/02/19 01:58:34;;;;;;;3.90;1.27;;;20.40;61.30;;;;;;4975600;28;20437;-91
2023/02/19 02:01:05;;;;;;;1.40;1.10;;;20.40;62.20;;;;;;4974228;28;20473;-89
2023/02/19 02:03:32;;;;;;;1.30;1.20;;;20.40;61.30;;;;;;4975751;28;20838;-89
2023/02/19 02:06:03;;;;;;;1.30;1.20;;;20.40;61.20;;;;;;4975762;28;20449;-91
2023/02/19 02:11:19;;;;;;;1.50;1.40;;;20.30;61.30;;;;;;4975842;28;20480;-91
2023/02/19 02:13:47;;;;;;;1.50;1.40;;;20.30;61.20;;;;;;4975669;28;20524;-89
2023/02/19 02:16:22;;;;;;;1.30;1.20;;;20.50;61.40;;;;;;4975482;28;20456;-89
2023/02/19 02:18:59;;;;;;;1.50;1.40;;;20.30;61.20;;;;;;4975485;28;20437;-89
2023/02/19 02:21:50;;;;;;;1.10;1.00;;;20.30;61.20;;;;;;4975498;28;20792;-91
2023/02/19 02:24:46;;;;;;;1.20;1.10;;;20.30;61.10;;;;;;4956479;29;20481;-90
2023/02/19 02:27:30;;;;;;;1.10;1.00;;;20.40;61.30;;;;;;4949549;29;20464;-89
2023/02/19 02:30:24;;;;;;;1.67;1.33;;;20.40;61.40;;;;;;4955956;29;20482;-89
2023/02/19 02:32:57;;;;;;;1.50;1.40;;;20.30;61.20;;;;;;4955969;29;20446;-89
2023/02/19 02:35:28;;;;;;;1.20;1.10;;;20.30;61.20;;;;;;4956035;29;20905;-89
2023/02/19 02:37:59;;;;;;;1.33;1.23;;;20.40;61.40;;;;;;4955791;29;20541;-89
2023/02/19 02:40:26;;;;;;;1.20;1.10;;;20.30;61.20;;;;;;4955998;29;20521;-89
2023/02/19 02:42:56;;;;;;;1.20;1.10;;;20.30;61.20;;;;;;4958947;28;20449;-88
2023/02/19 02:45:36;;;;;;;1.33;1.23;;;20.30;61.20;;;;;;4974997;28;20484;-89
2023/02/19 02:48:11;;;;;;;1.30;1.20;;;20.30;61.20;;;;;;4975095;28;20487;-91
2023/02/19 02:50:42;;;;;;;1.43;1.33;;;20.30;61.20;;;;;;4975648;28;20455;-91
2023/02/19 02:56:05;;;;;;;1.20;1.10;;;20.30;61.30;;;;;;4938043;28;20431;-89
2023/02/19 02:58:33;;;;;;;1.30;1.20;;;20.30;61.20;;;;;;4974831;28;20469;-89
2023/02/19 03:03:56;;;;;;;1.23;1.13;;;20.30;61.20;;;;;;4974857;28;20547;-91
2023/02/19 03:06:25;;;;;;;1.50;1.40;;;20.30;61.20;;;;;;4969267;28;20451;-89
2023/02/19 03:08:57;;;;;;;1.20;1.10;;;20.30;61.10;;;;;;4974890;28;20955;-90
2023/02/19 03:19:52;;;;;;;1.20;1.10;;;20.30;61.20;;;;;;4974815;28;20553;-89
2023/02/19 03:22:22;;;;;;;1.17;1.07;;;20.30;61.30;;;;;;4974820;28;20443;-90
2023/02/19 03:27:40;;;;;;;1.40;1.30;;;20.30;61.20;;;;;;4974999;28;20572;-92
2023/02/19 03:30:11;;;;;;;1.23;1.13;;;20.30;61.20;;;;;;4974775;28;20472;-89
2023/02/19 03:32:44;;;;;;;1.60;1.50;;;20.30;61.10;;;;;;4974694;28;20437;-90
2023/02/19 03:35:15;;;;;;;1.43;1.33;;;20.30;61.20;;;;;;4974960;28;20512;-90
2023/02/19 03:37:46;;;;;;;1.03;0.93;;;20.30;61.30;;;;;;4974859;28;20441;-90
2023/02/19 03:40:14;;;;;;;1.40;1.20;;;20.40;62.20;;;;;;4974671;28;20929;-92
2023/02/19 03:42:47;;;;;;;1.23;1.13;;;20.30;61.20;;;;;;4974830;28;20455;-90
2023/02/19 03:45:43;;;;;;;1.50;1.40;;;20.30;61.20;;;;;;4974657;28;20814;-90
2023/02/19 03:48:24;;;;;;;1.60;0.90;;;20.20;61.10;;;;;;4974598;28;20460;-91
2023/02/19 03:51:01;;;;;;;1.10;0.90;;;20.30;61.10;;;;;;4974461;28;20444;-91
2023/02/19 03:53:34;;;;;;;1.30;1.10;;;20.30;61.20;;;;;;4975174;28;20421;-92
2023/02/19 03:56:08;;;;;;;1.23;1.13;;;20.40;61.30;;;;;;4974537;28;20442;-90
2023/02/19 03:58:41;;;;;;;1.40;1.30;;;20.30;61.20;;;;;;4974631;28;20554;-89
2023/02/19 04:01:15;;;;;;;1.10;1.00;;;20.30;61.20;;;;;;4955227;29;20478;-89
2023/02/19 04:03:48;;;;;;;1.10;0.90;;;20.40;61.30;;;;;;4957522;28;20810;-92
2023/02/19 04:06:19;;;;;;;1.30;1.20;;;20.20;61.00;;;;;;4959052;29;20456;-92
2023/02/19 04:08:49;;;;;;;1.30;0.97;;;20.40;61.20;;;;;;4959298;29;20448;-90
2023/02/19 04:11:18;;;;;;;1.10;1.00;;;20.20;61.00;;;;;;4959684;29;20448;-90
2023/02/19 04:13:49;;;;;;;1.27;1.17;;;20.20;61.10;;;;;;4958800;29;20457;-90
2023/02/19 04:16:22;;;;;;;1.30;1.10;;;20.20;61.10;;;;;;4959131;29;20438;-92
2023/02/19 04:18:54;;;;;;;1.13;1.03;;;20.20;61.00;;;;;;4959043;29;20446;-89
2023/02/19 04:21:22;;;;;;;1.03;0.93;;;20.30;61.20;;;;;;4975661;28;20441;-90
2023/02/19 04:23:50;;;;;;;1.30;1.20;;;20.20;61.00;;;;;;4978126;28;20813;-91
2023/02/19 04:26:20;;;;;;;1.10;1.00;;;20.20;61.10;;;;;;4978294;28;20456;-90
2023/02/19 04:28:46;;;;;;;1.20;1.10;;;20.20;61.00;;;;;;4977924;28;20998;-90
2023/02/19 04:31:13;;;;;;;1.10;1.00;;;20.20;61.10;;;;;;4978596;28;20493;-89
2023/02/19 04:33:40;;;;;;;1.57;1.00;;;20.20;61.10;;;;;;4977936;28;20450;-89
2023/02/19 04:36:11;;;;;;;1.10;1.00;;;20.20;61.00;;;;;;4977975;28;20939;-90
2023/02/19 04:38:37;;;;;;;1.00;0.90;;;20.20;61.00;;;;;;4978188;28;20445;-90
2023/02/19 04:41:05;;;;;;;1.10;1.00;;;20.40;61.20;;;;;;4978250;28;20444;-90
2023/02/19 04:43:31;;;;;;;1.30;1.20;;;20.20;61.00;;;;;;4977753;28;20449;-91
2023/02/19 04:46:00;;;;;;;1.17;1.07;;;20.20;61.00;;;;;;4977607;28;20485;-89
2023/02/19 04:48:27;;;;;;;1.20;1.10;;;20.20;61.10;;;;;;4977768;28;20456;-92
2023/02/19 04:50:54;;;;;;;1.00;0.80;;;20.20;61.00;;;;;;4977261;28;20496;-90
2023/02/19 04:53:22;;;;;;;1.30;1.10;;;20.20;61.00;;;;;;4977201;28;20453;-92
2023/02/19 04:55:52;;;;;;;1.30;1.20;;;20.20;61.00;;;;;;4977420;28;20468;-92
2023/02/19 04:58:19;;;;;;;1.00;0.90;;;20.30;61.10;;;;;;4977166;28;20465;-92
2023/02/19 05:00:46;;;;;;;1.23;1.13;;;20.40;61.30;;;;;;4977118;28;20469;-92
2023/02/19 05:03:13;;;;;;;1.20;1.10;;;20.20;61.10;;;;;;4977147;28;20444;-90
2023/02/19 05:05:40;;;;;;;1.17;1.07;;;20.40;61.20;;;;;;4977234;28;20584;-90
2023/02/19 05:08:06;;;;;;;1.53;0.97;;;20.20;61.00;;;;;;4978004;28;20565;-90
2023/02/19 05:10:34;;;;;;;1.10;1.00;;;20.20;61.00;;;;;;4977951;28;20456;-93
2023/02/19 05:13:01;;;;;;;1.47;1.10;;;20.20;61.10;;;;;;4978005;28;20504;-90
2023/02/19 05:15:28;;;;;;;1.30;1.20;;;20.20;61.00;;;;;;4978278;28;20444;-90
2023/02/19 05:17:55;;;;;;;1.13;1.03;;;20.20;61.00;;;;;;4978162;28;20463;-90
2023/02/19 05:20:22;;;;;;;1.10;1.00;;;20.20;61.10;;;;;;4978873;28;20437;-90
2023/02/19 05:22:49;;;;;;;1.10;0.97;;;20.20;61.00;;;;;;4981528;28;20642;-90
2023/02/19 05:25:16;;;;;;;1.20;1.10;;;20.20;61.10;;;;;;5000974;28;20480;-91
2023/02/19 05:27:44;;;;;;;1.20;0.90;;;20.20;61.10;;;;;;4994994;28;20437;-90
2023/02/19 05:30:12;;;;;;;1.27;1.10;;;20.20;61.10;;;;;;4976530;28;20465;-90
2023/02/19 05:32:39;;;;;;;1.20;1.10;;;20.20;60.90;;;;;;4977863;28;20928;-90
2023/02/19 05:35:06;;;;;;;1.10;1.00;;;20.20;61.10;;;;;;4976550;28;20442;-91
2023/02/19 05:37:33;;;;;;;1.10;1.00;;;20.20;61.10;;;;;;4976529;28;20454;-91
2023/02/19 05:40:00;;;;;;;1.20;1.00;;;20.20;61.10;;;;;;4976257;28;20813;-90
2023/02/19 05:42:26;;;;;;;1.13;1.00;;;20.20;60.90;;;;;;4976582;28;20441;-90
2023/02/19 05:44:54;;;;;;;1.30;1.07;;;20.20;61.00;;;;;;4976195;28;20488;-90
2023/02/19 05:47:21;;;;;;;1.20;1.07;;;20.20;61.10;;;;;;4976419;28;20450;-90
2023/02/19 05:49:48;;;;;;;1.20;1.10;;;20.10;60.90;;;;;;4976628;28;20455;-92
2023/02/19 05:52:15;;;;;;;1.13;1.00;;;20.10;61.00;;;;;;4976450;28;20445;-92
2023/02/19 05:54:42;;;;;;;1.10;1.00;;;20.20;61.10;;;;;;4976250;28;20451;-90
2023/02/19 05:57:08;;;;;;;1.10;0.97;;;20.20;61.10;;;;;;4975631;28;20445;-89
2023/02/19 05:59:35;;;;;;;1.00;0.90;;;20.10;60.90;;;;;;4974749;28;20477;-91
2023/02/19 06:02:03;;;;;;;1.10;1.00;;;20.10;60.90;;;;;;4975809;28;20944;-89
2023/02/19 06:04:30;;;;;;;1.20;1.10;;;20.20;61.00;;;;;;4975396;28;20449;-89
2023/02/19 06:06:57;;;;;;;1.30;1.10;;;20.10;61.80;;;;;;4975871;28;20940;-90
2023/02/19 06:09:24;;;;;;;1.00;0.80;;;20.10;61.00;;;;;;4975698;28;20995;-92
2023/02/19 06:11:51;;;;;;;1.10;0.90;;;20.20;61.00;;;;;;4975611;28;20540;-90
2023/02/19 06:14:18;;;;;;;1.10;1.00;;;20.20;61.10;;;;;;4975561;28;20433;-90
2023/02/19 06:16:44;;;;;;;1.10;0.90;;;20.10;60.90;;;;;;4975518;28;20437;-90
2023/02/19 06:19:12;;;;;;;1.10;1.00;;;20.10;60.90;;;;;;4975865;28;20550;-90
2023/02/19 06:21:40;;;;;;;1.10;0.97;;;20.20;61.00;;;;;;4975454;28;20437;-90
2023/02/19 06:24:08;;;;;;;1.40;1.20;;;20.20;61.10;;;;;;4975311;28;20453;-91
2023/02/19 06:26:35;;;;;;;1.10;1.00;;;20.10;60.90;;;;;;4974445;28;21000;-93
2023/02/19 06:29:02;;;;;;;1.00;0.80;;;20.10;60.90;;;;;;4982374;28;20476;-90
2023/02/19 06:31:29;;;;;;;1.00;0.90;;;20.20;61.00;;;;;;4978312;28;20504;-90
2023/02/19 06:33:56;;;;;;;1.10;0.90;;;20.10;60.90;;;;;;4975238;28;20444;-91
2023/02/19 06:36:24;;;;;;;1.30;1.00;;;20.10;61.10;;;;;;4977283;28;20445;-90
2023/02/19 06:38:51;;;;;;;1.40;1.10;;;20.10;61.00;;;;;;4999826;28;20425;-91
2023/02/19 06:41:18;;;;;;;1.23;1.10;;;20.10;61.00;;;;;;4999863;28;20440;-89
2023/02/19 06:43:45;;;;;;;1.10;1.00;;;20.10;60.90;;;;;;4999685;28;20429;-89
2023/02/19 06:46:13;;;;;;;1.10;1.00;;;20.20;61.10;;;;;;4976037;28;20979;-92
2023/02/19 06:48:41;;;;;;;1.03;0.90;;;20.10;60.90;;;;;;4975190;28;20535;-90
2023/02/19 06:51:11;;;;;;;1.10;1.00;;;20.10;61.00;;;;;;4975162;28;20496;-89
2023/02/19 06:53:40;;;;;;;1.10;0.80;;;20.10;61.00;;;;;;4975456;28;20445;-89
2023/02/19 06:56:20;;;;;;;1.30;1.10;;;20.10;61.00;;;;;;4975212;28;20454;-89
2023/02/19 06:58:47;;;;;;;1.10;1.00;;;20.10;61.00;;;;;;4975113;28;20777;-89
2023/02/19 07:01:13;;;;;;;1.00;0.90;;;20.10;60.90;;;;;;4975369;28;20487;-89
2023/02/19 07:03:40;;;;;;;1.10;1.00;;;20.10;61.00;;;;;;4975261;28;20464;-89
2023/02/19 07:06:07;;;;;;;1.20;1.10;;;20.10;61.00;;;;;;4974677;28;20487;-89
2023/02/19 07:08:34;;;;;;;1.10;0.97;;;20.10;60.90;;;;;;4975212;28;20469;-89
2023/02/19 07:11:02;;;;;;;1.47;1.13;;;20.10;60.90;;;;;;4975220;28;20447;-89
2023/02/19 07:13:29;;;;;;;1.10;0.90;;;20.10;61.00;;;;;;4974942;28;20445;-90
2023/02/19 07:15:59;;;;;;;1.10;0.97;;;20.10;60.90;;;;;;4975023;28;20543;-89
2023/02/19 07:18:26;;;;;;;1.00;0.90;;;20.10;61.00;;;;;;4975105;28;20436;-89
2023/02/19 07:20:53;;;;;;;1.20;1.10;;;20.10;61.00;;;;;;4975132;28;20816;-89
2023/02/19 07:23:20;;;;;;;1.00;0.80;;;20.10;61.00;;;;;;4975111;28;20445;-89
2023/02/19 07:25:47;;;;;;;1.10;0.90;;;20.10;60.90;;;;;;4976573;28;20932;-89
2023/02/19 07:28:15;;;;;;;1.20;1.00;;;20.10;61.10;;;;;;4975324;28;20451;-89
2023/02/19 07:30:42;;;;;;;1.00;0.90;;;20.10;61.00;;;;;;4974102;28;20447;-91
2023/02/19 07:33:10;;;;;;;1.57;1.10;;;20.10;60.90;;;;;;4974644;28;20524;-89
2023/02/19 07:35:37;;;;;;;1.10;0.80;;;20.10;61.00;;;;;;4974503;28;20918;-82
2023/02/19 07:38:04;;;;;;;1.20;1.10;;;20.10;61.30;;;;;;4975027;28;20440;-89
2023/02/19 07:40:31;;;;;;;1.10;0.90;;;20.10;61.20;;;;;;4979368;28;20449;-91
2023/02/19 07:42:59;;;;;;;1.00;0.90;;;20.30;61.30;;;;;;4978477;28;20437;-91
2023/02/19 07:45:27;;;;;;;1.00;0.90;;;20.10;60.90;;;;;;4978056;28;20502;-89
2023/02/19 07:47:54;;;;;;;7.63;1.83;;;20.10;60.90;;;;;;4980219;28;20444;-94
2023/02/19 07:50:21;;;;;;;3.10;1.10;;;20.10;60.90;;;;;;4979245;28;20536;-94
2023/02/19 07:52:48;;;;;;;1.37;1.17;;;20.10;61.10;;;;;;4978583;28;20480;-92
2023/02/19 07:55:15;;;;;;;2.27;1.03;;;20.10;61.10;;;;;;4979501;28;20995;-93
2023/02/19 07:57:42;;;;;;;1.93;0.70;;;20.10;60.90;;;;;;4978788;28;20456;-93
2023/02/19 08:00:10;;;;;;;3.50;1.90;;;20.10;60.90;;;;;;4979534;28;20515;-94
2023/02/19 08:05:30;;;;;;;2.83;1.10;;;20.10;61.10;;;;;;5002927;28;20434;-92
2023/02/19 08:07:58;;;;;;;1.67;1.00;;;20.30;61.60;;;;;;4981189;28;20445;-95
2023/02/19 08:13:25;;;;;;;1.47;0.90;;;20.20;61.50;;;;;;4977897;28;20439;-95
2023/02/19 08:15:55;;;;;;;1.10;0.90;;;20.20;61.60;;;;;;4978269;28;20448;-92
2023/02/19 08:18:25;;;;;;;1.70;1.00;;;20.30;61.60;;;;;;4978210;28;20503;-92
2023/02/19 08:20:52;;;;;;;1.40;1.10;;;20.20;61.50;;;;;;4978440;28;20874;-91
2023/02/19 08:23:20;;;;;;;1.20;0.97;;;20.20;61.60;;;;;;4977455;28;20445;-92
2023/02/19 08:25:48;;;;;;;1.10;0.80;;;20.20;61.80;;;;;;4977906;28;20488;-92
2023/02/19 08:28:15;;;;;;;1.13;0.80;;;20.20;61.80;;;;;;4977906;28;20473;-92
2023/02/19 08:30:44;;;;;;;1.00;0.80;;;20.20;61.70;;;;;;4978059;28;20924;-94
2023/02/19 08:33:12;;;;;;;2.60;1.40;;;20.20;61.70;;;;;;4978057;28;20541;-90
2023/02/19 08:35:41;;;;;;;4.23;1.00;;;20.20;61.60;;;;;;4978459;28;20528;-92
2023/02/19 08:38:12;;;;;;;1.00;0.80;;;20.20;61.90;;;;;;4978572;28;20920;-91
2023/02/19 08:40:40;;;;;;;1.17;0.97;;;20.40;62.30;;;;;;4989762;23;20473;-86
2023/02/19 08:43:08;;;;;;;1.17;1.00;;;20.20;62.10;;;;;;4978516;28;20448;-90
2023/02/19 08:45:37;;;;;;;1.00;0.80;;;20.20;61.90;;;;;;4978168;28;20998;-88
2023/02/19 08:48:05;;;;;;;1.83;1.07;;;20.20;61.90;;;;;;4977609;28;20484;-85
2023/02/19 08:50:32;;;;;;;2.00;1.23;;;20.20;61.80;;;;;;4976851;28;20812;-89
2023/02/19 08:53:01;;;;;;;2.07;1.00;;;20.20;62.10;;;;;;4977185;28;20488;-85
2023/02/19 08:55:28;;;;;;;1.20;0.93;;;20.20;62.30;;;;;;4977427;28;20453;-86
2023/02/19 08:57:55;;;;;;;4.20;1.40;;;20.20;61.90;;;;;;4976832;28;20445;-94
2023/02/19 09:00:22;;;;;;;1.57;1.10;;;20.20;62.20;;;;;;4977165;28;20449;-85
2023/02/19 09:02:49;;;;;;;3.97;1.77;;;20.30;61.90;;;;;;4977226;28;20804;-86
2023/02/19 09:05:17;;;;;;;3.00;1.40;;;20.20;63.30;;;;;;4977123;28;20445;-85
2023/02/19 09:07:44;;;;;;;2.07;1.03;;;20.20;62.80;;;;;;4977013;28;20448;-86
2023/02/19 09:10:14;;;;;;;1.43;1.00;;;20.20;62.20;;;;;;4976531;28;20448;-86
2023/02/19 09:12:41;;;;;;;1.63;1.03;;;20.30;62.20;;;;;;4976424;28;20445;-86
2023/02/19 09:15:08;;;;;;;4.97;3.30;;;20.20;61.80;;;;;;4976552;28;20809;-94
2023/02/19 09:17:35;;;;;;;18.13;3.20;;;20.10;64.00;;;;;;4976690;28;20449;-87
2023/02/19 09:20:02;;;;;;;5.47;2.03;;;20.10;63.90;;;;;;4976562;28;20475;-88
2023/02/19 09:22:29;;;;;;;2.57;1.63;;;20.10;63.00;;;;;;4976709;28;20449;-89
2023/02/19 09:24:56;;;;;;;13.13;2.33;;;20.10;62.70;;;;;;4976939;28;20967;-93
2023/02/19 09:27:24;;;;;;;4.00;1.80;;;20.10;63.40;;;;;;4977183;28;20524;-88
2023/02/19 09:29:51;;;;;;;7.17;1.70;;;20.20;63.10;;;;;;4976926;28;20472;-90
2023/02/19 09:32:17;;;;;;;3.40;1.80;;;20.20;63.20;;;;;;4976686;28;20452;-88
2023/02/19 09:34:44;;;;;;;6.60;2.60;;;20.10;63.00;;;;;;4977235;28;20535;-88
2023/02/19 09:37:11;;;;;;;3.37;1.77;;;20.20;63.10;;;;;;4976928;28;20868;-91
2023/02/19 09:39:38;;;;;;;2.07;1.63;;;20.20;63.20;;;;;;4976820;28;20530;-90
2023/02/19 09:42:14;;;;;;;2.70;1.70;;;20.20;63.10;;;;;;4976467;28;20838;-90
2023/02/19 09:44:46;;;;;;;4.93;1.67;;;20.20;63.10;;;;;;4976760;28;20456;-88
2023/02/19 09:47:17;;;;;;;1.73;1.50;;;20.20;63.90;;;;;;4976288;28;21006;-88
2023/02/19 09:49:50;;;;;;;7.13;1.87;;;20.20;63.10;;;;;;4976874;28;20805;-88
2023/02/19 09:52:24;;;;;;;4.83;1.67;;;20.20;63.00;;;;;;4976768;28;20532;-90
2023/02/19 09:54:56;;;;;;;1.90;1.13;;;20.20;63.00;;;;;;4976115;28;20444;-92
2023/02/19 09:57:24;;;;;;;3.00;1.67;;;20.20;63.10;;;;;;4976093;28;20460;-90
2023/02/19 09:59:55;;;;;;;2.77;1.50;;;20.20;63.10;;;;;;4976042;28;20976;-92
2023/02/19 10:02:24;;;;;;;3.03;2.33;;;20.20;63.10;;;;;;4975846;28;20444;-90
2023/02/19 10:04:52;;;;;;;1.93;1.30;;;20.20;63.10;;;;;;4975553;28;20456;-90
2023/02/19 10:07:21;;;;;;;1.70;1.60;;;20.30;63.10;;;;;;4975631;28;20494;-87
2023/02/19 10:09:52;;;;;;;3.80;1.50;;;20.30;63.10;;;;;;4975468;28;20452;-90
2023/02/19 10:12:24;;;;;;;3.70;2.10;;;20.40;63.20;;;;;;4975606;28;20445;-90
2023/02/19 10:15:00;;;;;;;1.77;1.60;;;20.20;63.00;;;;;;4975879;28;20437;-92
2023/02/19 10:17:29;;;;;;;3.63;1.70;;;20.30;63.10;;;;;;4975259;28;20464;-91
2023/02/19 10:19:57;;;;;;;1.93;1.30;;;20.30;63.00;;;;;;4975111;28;20453;-90
2023/02/19 10:22:24;;;;;;;3.00;1.50;;;20.30;63.90;;;;;;4975216;28;20453;-89
2023/02/19 10:24:54;;;;;;;2.73;1.30;;;20.30;63.00;;;;;;4974770;28;20457;-90
2023/02/19 10:27:21;;;;;;;4.43;1.30;;;20.30;63.90;;;;;;4974754;28;20851;-90
2023/02/19 10:29:50;;;;;;;2.40;1.67;;;20.30;63.00;;;;;;4974882;28;20460;-90
2023/02/19 10:32:22;;;;;;;3.37;1.70;;;20.30;63.00;;;;;;4974601;28;20847;-91
2023/02/19 10:35:08;;;;;;;2.60;1.40;;;20.30;63.00;;;;;;4974563;28;20449;-91
2023/02/19 10:37:41;;;;;;;3.30;1.30;;;20.30;63.10;;;;;;4974397;28;20956;-89
2023/02/19 10:40:15;;;;;;;1.30;1.10;;;20.30;63.00;;;;;;4993016;28;20436;-91
2023/02/19 10:42:46;;;;;;;2.70;1.33;;;20.30;63.00;;;;;;4994015;28;20448;-90
2023/02/19 10:45:18;;;;;;;2.67;1.50;;;20.30;63.00;;;;;;4994032;28;20448;-91
2023/02/19 10:47:48;;;;;;;3.27;1.60;;;20.30;63.20;;;;;;4994041;28;20968;-90
2023/02/19 10:50:24;;;;;;;5.80;1.83;;;20.30;63.10;;;;;;4993986;28;20957;-89
2023/02/19 10:52:53;;;;;;;1.70;1.60;;;20.30;63.10;;;;;;4989445;28;20452;-89
2023/02/19 10:55:28;;;;;;;2.57;1.30;;;20.30;63.00;;;;;;4973912;28;20441;-87
2023/02/19 10:57:55;;;;;;;2.03;1.50;;;20.30;62.90;;;;;;4973551;28;20468;-88
2023/02/19 11:00:25;;;;;;;1.57;1.47;;;20.30;63.10;;;;;;4973890;28;20445;-87
2023/02/19 11:03:13;;;;;;;1.63;1.53;;;20.30;63.30;;;;;;4974876;28;20776;-87
2023/02/19 11:05:52;;;;;;;3.03;1.33;;;20.50;63.30;;;;;;4974691;28;20881;-87
2023/02/19 11:08:23;;;;;;;2.50;1.73;;;20.30;63.00;;;;;;4974239;28;20452;-87
2023/02/19 11:10:50;;;;;;;2.27;1.67;;;20.30;63.00;;;;;;4974656;28;20822;-88
2023/02/19 11:13:25;;;;;;;1.50;1.23;;;20.30;63.00;;;;;;4973846;28;20455;-87
2023/02/19 11:15:53;;;;;;;1.50;1.27;;;20.30;63.00;;;;;;4974462;28;20440;-89
2023/02/19 11:18:25;;;;;;;2.50;1.30;;;20.40;63.30;;;;;;4974273;28;20437;-87
2023/02/19 11:20:54;;;;;;;2.57;1.60;;;20.40;63.30;;;;;;4974483;28;20451;-88
2023/02/19 11:23:25;;;;;;;1.40;1.20;;;20.40;63.40;;;;;;4974387;28;20452;-87
2023/02/19 11:25:54;;;;;;;3.27;1.50;;;20.40;63.30;;;;;;4974166;28;20455;-87
2023/02/19 11:28:29;;;;;;;4.13;1.20;;;20.40;63.30;;;;;;4974279;28;20830;-86
2023/02/19 11:31:14;;;;;;;2.43;1.47;;;20.40;63.20;;;;;;4972245;28;20974;-87
2023/02/19 11:33:55;;;;;;;2.73;1.20;;;20.40;62.90;;;;;;4972665;28;20455;-91
2023/02/19 11:36:27;;;;;;;3.90;1.40;;;20.40;62.60;;;;;;4980390;28;20437;-89
2023/02/19 11:38:55;;;;;;;3.33;1.80;;;20.40;62.90;;;;;;4978749;28;20445;-91
2023/02/19 11:41:30;;;;;;;6.60;2.10;;;20.40;62.90;;;;;;4980453;28;21016;-91
2023/02/19 11:44:12;;;;;;;4.77;2.03;;;20.40;63.10;;;;;;4984953;28;20458;-90
2023/02/19 11:46:46;;;;;;;3.30;2.00;;;20.40;63.40;;;;;;4981350;28;20506;-91
2023/02/19 11:49:26;;;;;;;7.90;1.90;;;20.40;63.30;;;;;;4976496;28;20451;-87
2023/02/19 11:52:10;;;;;;;5.77;2.37;;;20.40;63.40;;;;;;4973730;28;20916;-86
2023/02/19 11:54:49;;;;;;;7.00;2.30;;;20.40;63.40;;;;;;4974166;28;20540;-87
2023/02/19 11:57:36;;;;;;;2.87;2.30;;;20.60;63.80;;;;;;4973951;28;20469;-89
2023/02/19 12:00:24;;;;;;;7.07;1.90;;;20.40;63.00;;;;;;4976559;28;20891;-85
2023/02/19 12:03:30;;;;;;;4.77;1.70;;;20.40;63.00;;;;;;4978074;28;20510;-87
2023/02/19 12:06:26;;;;;;;5.10;2.10;;;20.50;63.20;;;;;;4919077;28;20439;-87
2023/02/19 12:09:25;;;;;;;3.93;2.17;;;20.50;63.10;;;;;;4992760;28;20448;-86
2023/02/19 12:12:17;;;;;;;6.63;3.00;;;20.40;63.30;;;;;;4993474;28;20448;-86
2023/02/19 12:15:09;;;;;;;5.77;2.00;;;20.40;63.20;;;;;;4993012;28;20444;-88
2023/02/19 12:17:57;;;;;;;4.00;1.97;;;20.40;63.30;;;;;;4993401;28;20444;-86
2023/02/19 12:20:32;;;;;;;4.27;1.60;;;20.40;63.80;;;;;;4993380;28;20443;-85
2023/02/19 12:23:29;;;;;;;5.37;1.80;;;20.40;64.10;;;;;;4993455;28;20439;-88
2023/02/19 12:26:04;;;;;;;3.80;1.67;;;20.40;63.80;;;;;;4979672;28;20463;-89
2023/02/19 12:28:45;;;;;;;5.90;2.07;;;20.40;63.40;;;;;;4977754;28;20486;-87
2023/02/19 12:31:43;;;;;;;3.90;2.27;;;20.40;63.60;;;;;;4982801;28;20441;-86
2023/02/19 12:34:35;;;;;;;3.00;1.60;;;20.40;63.70;;;;;;4976392;28;20441;-89
2023/02/19 12:37:18;;;;;;;3.63;1.93;;;20.30;63.90;;;;;;4961242;28;20449;-87
2023/02/19 12:39:56;;;;;;;3.63;1.63;;;20.40;64.00;;;;;;4977198;28;20444;-89
2023/02/19 12:42:40;;;;;;;5.70;1.90;;;20.30;63.90;;;;;;4977129;28;20445;-83
2023/02/19 12:45:16;;;;;;;5.73;2.00;;;20.40;63.90;;;;;;4976778;28;20467;-86
2023/02/19 12:47:55;;;;;;;4.73;2.03;;;20.30;63.80;;;;;;4967425;28;20582;-86
2023/02/19 12:50:27;;;;;;;5.00;1.80;;;20.30;63.70;;;;;;4975351;28;20464;-90
2023/02/19 12:52:58;;;;;;;4.43;1.90;;;20.30;63.80;;;;;;4977053;28;20532;-92
2023/02/19 12:55:29;;;;;;;4.17;1.80;;;20.40;64.10;;;;;;4976769;28;20472;-88
2023/02/19 12:58:00;;;;;;;8.20;2.07;;;20.30;63.70;;;;;;4977754;28;20457;-91
2023/02/19 13:00:31;;;;;;;4.70;1.93;;;20.40;63.70;;;;;;4977230;28;20503;-93
2023/02/19 13:03:02;;;;;;;5.13;2.20;;;20.30;63.80;;;;;;4977119;28;20939;-89
2023/02/19 13:05:40;;;;;;;4.07;1.73;;;20.30;63.90;;;;;;4958624;29;20843;-92
2023/02/19 13:08:13;;;;;;;2.60;1.43;;;20.30;63.70;;;;;;4957453;29;20484;-90
2023/02/19 13:10:46;;;;;;;5.50;1.70;;;20.30;63.90;;;;;;4957717;29;20426;-92
2023/02/19 13:13:20;;;;;;;6.20;1.90;;;20.30;64.10;;;;;;4957695;29;20460;-92
2023/02/19 13:15:50;;;;;;;4.00;1.97;;;20.50;64.30;;;;;;4957533;29;20448;-92
2023/02/19 13:18:20;;;;;;;5.20;2.00;;;20.30;64.30;;;;;;4957730;29;20921;-91
2023/02/19 13:20:50;;;;;;;6.83;2.20;;;20.30;64.10;;;;;;4957442;29;20956;-92
2023/02/19 13:26:29;;;;;;;11.60;3.30;;;20.30;64.00;;;;;;4957098;29;20453;-91
2023/02/19 13:29:10;;;;;;;4.70;1.70;;;20.30;64.10;;;;;;4954468;29;20482;-91
2023/02/19 13:32:00;;;;;;;4.30;2.23;;;20.30;63.80;;;;;;4957260;29;20457;-91